CYOW/YOW METAR and TAF weather

Enter ICAO airport designator
Station Type Date Time Source
CYOW METAR 2018/04/23 11:00 UTC NOAA

CYOW 231100Z 18006KT 15SM FEW250 02/M05 A3044 RMK CI1 CI TR SLP314


Station Type Date Time Source
CYOW Decoded METAR 2018/04/23 11:00 UTC NOAA

Ottawa Int'L. Ont., Canada (CYOW) 45-19N 075-40W 114M
Apr 23, 2018 - 07:00 AM EDT / 2018.04.23 1100 UTC
Wind: from the S (180 degrees) at 7 MPH (6 KT):0
Visibility: 15 mile(s):0
Sky conditions: mostly clear
Temperature: 35 F (2 C)
Windchill: 28 F (-2 C):1
Dew Point: 23 F (-5 C)
Relative Humidity: 59%
Pressure (altimeter): 30.44 in. Hg (1030 hPa)
ob: CYOW 231100Z 18006KT 15SM FEW250 02/M05 A3044 RMK CI1 CI TR SLP314
cycle: 11

Station Type Date Time Source
CYOW TAF 2018/04/23 09:45 UTC NOAA

TAF TAF CYOW 230839Z 2309/2406 19005KT P6SM SKC
BECMG 2315/2317 21008KT
BECMG 2402/2404 VRB03KT
RMK NXT FCST BY 231200Z


Example: see airport list